Terminal Aerodrome Forecast
Issued by NWS

Home | Current Version | Previous Version | Text Only | Print | Product List | Glossary On
Versions: 1 2 3 4 5 6 7 8 9 10 11 12 13 14 15 16 17 18 19 20 21 22 23 24 25
000
FTUS45 KBOU 200539
TAFAPA
TAF
KAPA 200539Z 2006/2106 33007KT P6SM SCT014 BKN026 OVC040
     FM200800 25007KT P6SM BKN040
     FM201000 22009KT P6SM SCT060 BKN080
     FM201400 25007KT P6SM SCT200
     FM201800 34011KT P6SM FEW080 SCT200
     FM210100 25007KT P6SM SCT090 BKN180
     FM210400 19007KT P6SM FEW090 BKN200=

USA.gov is the U.S. government's official web portal to all federal, state and local government web resources and services.